sensor_id;sensor_type;location;lat;lon;timestamp;P1;durP1;ratioP1;P2;durP2;ratioP2
25984;SDS011;66753;53.848;10.658;2024-01-25T00:09:02;17.93;;;2.73;;
25984;SDS011;66753;53.848;10.658;2024-01-25T00:24:05;17.37;;;2.43;;
25984;SDS011;66753;53.848;10.658;2024-01-25T00:39:06;9.90;;;2.30;;
25984;SDS011;66753;53.848;10.658;2024-01-25T00:54:08;11.07;;;2.53;;
25984;SDS011;66753;53.848;10.658;2024-01-25T01:09:10;11.07;;;1.70;;
25984;SDS011;66753;53.848;10.658;2024-01-25T01:24:11;8.93;;;1.97;;
25984;SDS011;66753;53.848;10.658;2024-01-25T01:39:13;10.40;;;2.03;;
25984;SDS011;66753;53.848;10.658;2024-01-25T01:54:15;11.00;;;2.87;;
25984;SDS011;66753;53.848;10.658;2024-01-25T02:09:16;13.83;;;2.33;;
25984;SDS011;66753;53.848;10.658;2024-01-25T02:24:18;9.17;;;1.37;;
25984;SDS011;66753;53.848;10.658;2024-01-25T02:39:20;17.77;;;2.63;;
25984;SDS011;66753;53.848;10.658;2024-01-25T02:54:22;13.13;;;1.47;;
25984;SDS011;66753;53.848;10.658;2024-01-25T03:09:24;7.57;;;1.80;;
25984;SDS011;66753;53.848;10.658;2024-01-25T03:24:26;11.37;;;1.80;;
25984;SDS011;66753;53.848;10.658;2024-01-25T03:39:30;6.20;;;1.10;;
25984;SDS011;66753;53.848;10.658;2024-01-25T03:54:32;9.43;;;1.50;;
25984;SDS011;66753;53.848;10.658;2024-01-25T04:09:34;13.93;;;2.07;;
25984;SDS011;66753;53.848;10.658;2024-01-25T04:24:36;14.67;;;2.10;;
25984;SDS011;66753;53.848;10.658;2024-01-25T04:39:38;12.93;;;1.83;;
25984;SDS011;66753;53.848;10.658;2024-01-25T04:54:39;10.67;;;1.47;;
25984;SDS011;66753;53.848;10.658;2024-01-25T05:09:40;11.80;;;1.63;;
25984;SDS011;66753;53.848;10.658;2024-01-25T05:24:42;11.77;;;2.00;;
25984;SDS011;66753;53.848;10.658;2024-01-25T05:39:44;11.67;;;1.87;;
25984;SDS011;66753;53.848;10.658;2024-01-25T05:54:46;9.33;;;1.20;;
25984;SDS011;66753;53.848;10.658;2024-01-25T06:09:48;7.37;;;2.23;;
25984;SDS011;66753;53.848;10.658;2024-01-25T06:24:50;11.03;;;1.93;;
25984;SDS011;66753;53.848;10.658;2024-01-25T06:39:52;7.23;;;1.83;;
25984;SDS011;66753;53.848;10.658;2024-01-25T06:54:54;6.23;;;1.17;;
25984;SDS011;66753;53.848;10.658;2024-01-25T07:09:56;7.77;;;1.23;;
25984;SDS011;66753;53.848;10.658;2024-01-25T07:24:58;8.73;;;1.30;;
25984;SDS011;66753;53.848;10.658;2024-01-25T07:40:00;5.17;;;1.17;;
25984;SDS011;66753;53.848;10.658;2024-01-25T07:55:01;9.53;;;1.70;;
25984;SDS011;66753;53.848;10.658;2024-01-25T08:10:04;9.23;;;1.10;;
25984;SDS011;66753;53.848;10.658;2024-01-25T08:25:07;13.30;;;1.70;;
25984;SDS011;66753;53.848;10.658;2024-01-25T08:40:10;8.70;;;1.00;;
25984;SDS011;66753;53.848;10.658;2024-01-25T08:55:12;7.40;;;1.00;;
25984;SDS011;66753;53.848;10.658;2024-01-25T09:10:13;4.97;;;1.03;;
25984;SDS011;66753;53.848;10.658;2024-01-25T09:25:15;7.73;;;1.23;;
25984;SDS011;66753;53.848;10.658;2024-01-25T09:40:16;11.97;;;1.20;;
25984;SDS011;66753;53.848;10.658;2024-01-25T09:55:21;7.80;;;1.10;;
25984;SDS011;66753;53.848;10.658;2024-01-25T10:10:26;7.90;;;1.23;;
25984;SDS011;66753;53.848;10.658;2024-01-25T10:25:28;5.10;;;1.07;;
25984;SDS011;66753;53.848;10.658;2024-01-25T10:40:29;6.90;;;1.40;;
25984;SDS011;66753;53.848;10.658;2024-01-25T10:55:30;11.03;;;1.60;;
25984;SDS011;66753;53.848;10.658;2024-01-25T11:10:34;6.47;;;1.37;;
25984;SDS011;66753;53.848;10.658;2024-01-25T11:25:38;11.83;;;1.53;;
25984;SDS011;66753;53.848;10.658;2024-01-25T11:40:39;9.10;;;0.97;;
25984;SDS011;66753;53.848;10.658;2024-01-25T11:55:40;5.83;;;1.33;;
25984;SDS011;66753;53.848;10.658;2024-01-25T12:10:42;9.23;;;1.20;;
25984;SDS011;66753;53.848;10.658;2024-01-25T12:25:44;7.53;;;1.40;;
25984;SDS011;66753;53.848;10.658;2024-01-25T12:40:46;11.83;;;1.67;;
25984;SDS011;66753;53.848;10.658;2024-01-25T12:55:48;11.20;;;1.37;;
25984;SDS011;66753;53.848;10.658;2024-01-25T13:10:49;11.60;;;1.53;;
25984;SDS011;66753;53.848;10.658;2024-01-25T13:25:50;10.30;;;1.37;;
25984;SDS011;66753;53.848;10.658;2024-01-25T13:40:52;5.60;;;1.60;;
25984;SDS011;66753;53.848;10.658;2024-01-25T13:55:54;9.17;;;1.50;;
25984;SDS011;66753;53.848;10.658;2024-01-25T14:10:55;10.30;;;2.23;;
25984;SDS011;66753;53.848;10.658;2024-01-25T14:25:57;8.87;;;1.53;;
25984;SDS011;66753;53.848;10.658;2024-01-25T14:40:58;11.90;;;1.90;;
25984;SDS011;66753;53.848;10.658;2024-01-25T14:56:00;8.67;;;1.57;;
25984;SDS011;66753;53.848;10.658;2024-01-25T15:11:03;9.07;;;2.17;;
25984;SDS011;66753;53.848;10.658;2024-01-25T15:26:04;8.77;;;1.80;;
25984;SDS011;66753;53.848;10.658;2024-01-25T15:41:06;8.50;;;1.80;;
25984;SDS011;66753;53.848;10.658;2024-01-25T15:56:08;10.20;;;1.43;;
25984;SDS011;66753;53.848;10.658;2024-01-25T16:11:11;11.70;;;1.77;;
25984;SDS011;66753;53.848;10.658;2024-01-25T16:26:13;10.63;;;2.03;;
25984;SDS011;66753;53.848;10.658;2024-01-25T16:41:14;8.53;;;1.57;;
25984;SDS011;66753;53.848;10.658;2024-01-25T16:56:16;12.87;;;3.20;;
25984;SDS011;66753;53.848;10.658;2024-01-25T17:11:17;10.73;;;2.50;;
25984;SDS011;66753;53.848;10.658;2024-01-25T17:26:19;14.90;;;3.13;;
25984;SDS011;66753;53.848;10.658;2024-01-25T17:41:22;9.67;;;1.70;;
25984;SDS011;66753;53.848;10.658;2024-01-25T17:56:23;6.27;;;1.77;;
25984;SDS011;66753;53.848;10.658;2024-01-25T18:11:25;6.30;;;1.87;;
25984;SDS011;66753;53.848;10.658;2024-01-25T18:26:26;12.30;;;2.10;;
25984;SDS011;66753;53.848;10.658;2024-01-25T18:41:28;11.73;;;2.27;;
25984;SDS011;66753;53.848;10.658;2024-01-25T18:56:30;11.53;;;2.33;;
25984;SDS011;66753;53.848;10.658;2024-01-25T19:11:32;11.00;;;3.47;;
25984;SDS011;66753;53.848;10.658;2024-01-25T19:26:34;13.03;;;2.83;;
25984;SDS011;66753;53.848;10.658;2024-01-25T19:41:37;12.53;;;2.40;;
25984;SDS011;66753;53.848;10.658;2024-01-25T19:56:39;8.37;;;2.33;;
25984;SDS011;66753;53.848;10.658;2024-01-25T20:11:40;15.27;;;4.10;;
25984;SDS011;66753;53.848;10.658;2024-01-25T20:26:42;11.97;;;2.63;;
25984;SDS011;66753;53.848;10.658;2024-01-25T20:41:43;10.53;;;2.37;;
25984;SDS011;66753;53.848;10.658;2024-01-25T20:56:44;9.67;;;2.67;;
25984;SDS011;66753;53.848;10.658;2024-01-25T21:11:46;9.10;;;2.30;;
25984;SDS011;66753;53.848;10.658;2024-01-25T21:26:47;9.23;;;3.40;;
25984;SDS011;66753;53.848;10.658;2024-01-25T21:56:49;10.50;;;3.67;;
25984;SDS011;66753;53.848;10.658;2024-01-25T22:11:50;16.20;;;6.47;;
25984;SDS011;66753;53.848;10.658;2024-01-25T22:26:51;11.10;;;3.50;;
25984;SDS011;66753;53.848;10.658;2024-01-25T22:56:54;11.83;;;2.70;;
25984;SDS011;66753;53.848;10.658;2024-01-25T23:11:55;14.60;;;2.93;;
25984;SDS011;66753;53.848;10.658;2024-01-25T23:26:56;14.63;;;3.67;;
25984;SDS011;66753;53.848;10.658;2024-01-25T23:41:58;14.03;;;3.40;;
25984;SDS011;66753;53.848;10.658;2024-01-25T23:57:00;12.70;;;3.10;;
